Time;durP1;ratioP1;P1;durP2;ratioP2;P2;SDS_P1;SDS_P2;PMS_P1;PMS_P2;Temp;Humidity;BMP_temperature;BMP_pressure;BME280_temperature;BME280_humidity;BME280_pressure;Samples;Min_cycle;Max_cycle;Signal;HPM_P1;HPM_P2
2022/01/08 00:01:29;;;;;;;13.58;7.15;;;;;;;-2.23;74.07;101711.08;1773195;79;21367;-53
2022/01/08 00:04:36;;;;;;;15.63;6.70;;;;;;;-2.17;74.08;101718.88;1772727;80;21725;-54
2022/01/08 00:07:42;;;;;;;14.35;7.08;;;;;;;-2.13;74.04;101723.19;1772786;80;21221;-54
2022/01/08 00:10:53;;;;;;;13.65;7.15;;;;;;;-2.09;73.96;101725.25;1772544;79;21355;-53
2022/01/08 00:14:04;;;;;;;13.80;7.27;;;;;;;-2.06;73.88;101719.79;1773042;80;21323;-54
2022/01/08 00:17:10;;;;;;;18.17;7.25;;;;;;;-2.05;73.76;101721.52;1772781;79;21963;-53
2022/01/08 00:20:18;;;;;;;19.12;9.48;;;;;;;-2.04;73.63;101718.77;1772848;79;21447;-53
2022/01/08 00:23:26;;;;;;;22.80;9.50;;;;;;;-2.02;73.49;101720.05;1773119;80;21694;-53
2022/01/08 00:26:33;;;;;;;45.05;15.65;;;;;;;-2.03;73.33;101715.14;1772892;79;22193;-52
2022/01/08 00:29:40;;;;;;;26.48;12.95;;;;;;;-2.04;73.16;101709.84;1772727;80;21166;-53
2022/01/08 00:32:45;;;;;;;19.95;10.35;;;;;;;-2.06;73.03;101708.56;1772847;80;21884;-52
2022/01/08 00:35:51;;;;;;;21.90;10.65;;;;;;;-2.08;72.95;101707.75;1772252;79;21702;-54
2022/01/08 00:38:57;;;;;;;28.27;12.82;;;;;;;-2.09;72.90;101713.17;1770924;80;21260;-54
2022/01/08 00:42:02;;;;;;;22.25;10.60;;;;;;;-2.11;72.87;101715.92;1771064;79;21749;-53
2022/01/08 00:45:08;;;;;;;20.43;10.10;;;;;;;-2.14;72.86;101718.73;1770909;79;21186;-53
2022/01/08 00:48:13;;;;;;;14.40;8.53;;;;;;;-2.18;72.87;101725.18;1771021;81;21197;-53
2022/01/08 00:51:18;;;;;;;13.88;8.18;;;;;;;-2.20;72.90;101724.82;1770940;79;21251;-52
2022/01/08 00:54:24;;;;;;;13.40;8.10;;;;;;;-2.21;72.95;101733.36;1770960;81;21204;-54
2022/01/08 00:57:31;;;;;;;12.43;7.08;;;;;;;-2.21;72.98;101727.99;1771545;79;21300;-53
2022/01/08 01:00:36;;;;;;;12.90;8.15;;;;;;;-2.22;73.06;101722.20;1771055;79;21190;-53
2022/01/08 01:03:44;;;;;;;16.00;9.65;;;;;;;-2.21;73.17;101733.36;1770877;81;21252;-53
2022/01/08 01:06:49;;;;;;;15.10;9.10;;;;;;;-2.20;73.25;101724.36;1771148;79;21369;-53
2022/01/08 01:09:55;;;;;;;13.65;8.03;;;;;;;-2.18;73.37;101725.64;1770983;81;21181;-53
2022/01/08 01:13:00;;;;;;;15.00;8.48;;;;;;;-2.19;73.40;101724.75;1771265;80;21216;-53
2022/01/08 01:16:06;;;;;;;14.30;8.18;;;;;;;-2.20;73.45;101729.73;1771251;79;21359;-53
2022/01/08 01:19:11;;;;;;;12.70;7.90;;;;;;;-2.24;73.37;101722.76;1771330;80;21805;-54
2022/01/08 01:22:26;;;;;;;13.72;7.00;;;;;;;-2.28;73.56;101729.16;1770949;79;21858;-54
2022/01/08 01:25:37;;;;;;;13.53;7.00;;;;;;;-2.32;73.50;101723.98;1771047;79;21193;-53
2022/01/08 01:28:56;;;;;;;17.05;6.85;;;;;;;-2.39;73.39;101729.18;1770940;81;21264;-53
2022/01/08 01:48:32;;;;;;;18.75;8.93;;;;;;;-2.60;74.23;101714.83;1771018;81;21341;-54
2022/01/08 01:51:38;;;;;;;15.75;9.40;;;;;;;-2.59;74.31;101722.41;1770942;79;21211;-53
2022/01/08 01:54:45;;;;;;;15.70;10.25;;;;;;;-2.61;74.40;101721.13;1770967;81;21217;-54
2022/01/08 01:57:51;;;;;;;17.77;10.95;;;;;;;-2.61;74.57;101721.59;1771124;81;21363;-55
2022/01/08 02:00:57;;;;;;;17.70;10.98;;;;;;;-2.61;74.68;101718.91;1770881;79;21351;-54
2022/01/08 02:04:02;;;;;;;18.15;11.20;;;;;;;-2.60;74.83;101726.88;1748091;80;21373;-53
2022/01/08 02:07:09;;;;;;;20.43;12.00;;;;;;;-2.58;74.90;101727.70;1768939;79;21217;-53
2022/01/08 02:10:15;;;;;;;21.60;11.75;;;;;;;-2.57;75.00;101724.11;1769933;80;21372;-53
2022/01/08 02:13:29;;;;;;;22.35;12.53;;;;;;;-2.53;75.13;101728.41;1768240;81;21196;-53
2022/01/08 02:16:34;;;;;;;32.23;14.65;;;;;;;-2.51;75.22;101733.25;1763479;81;21565;-53
2022/01/08 02:19:40;;;;;;;27.52;14.63;;;;;;;-2.49;75.27;101725.99;1770365;81;21188;-53
2022/01/08 02:22:44;;;;;;;24.70;13.80;;;;;;;-2.46;75.26;101726.36;1765042;81;21781;-54
2022/01/08 02:25:51;;;;;;;24.82;12.47;;;;;;;-2.45;75.17;101720.94;1752664;81;21829;-53
2022/01/08 02:28:57;;;;;;;20.77;11.38;;;;;;;-2.46;75.11;101720.54;1739938;82;21802;-54
2022/01/08 02:32:11;;;;;;;20.05;11.00;;;;;;;-2.47;75.07;101716.55;1766353;79;21213;-53
2022/01/08 02:35:22;;;;;;;17.15;9.88;;;;;;;-2.47;75.06;101705.37;1768248;79;21169;-53
2022/01/08 02:38:27;;;;;;;17.57;10.85;;;;;;;-2.48;75.01;101715.70;1764565;79;21193;-53
2022/01/08 02:41:32;;;;;;;21.02;12.00;;;;;;;-2.49;74.97;101707.23;1762767;80;21213;-53
2022/01/08 02:44:38;;;;;;;20.15;11.22;;;;;;;-2.50;74.94;101716.22;1769638;80;21161;-54
2022/01/08 02:47:47;;;;;;;22.17;11.83;;;;;;;-2.53;74.90;101723.05;1769851;80;21256;-54
2022/01/08 02:50:54;;;;;;;19.40;12.10;;;;;;;-2.56;74.98;101720.48;1769673;79;21268;-53
2022/01/08 02:53:59;;;;;;;19.85;11.90;;;;;;;-2.57;75.04;101729.48;1769330;81;21208;-53
2022/01/08 02:57:03;;;;;;;19.10;12.18;;;;;;;-2.59;75.04;101724.63;1769284;79;21208;-53
2022/01/08 03:00:08;;;;;;;21.20;12.75;;;;;;;-2.60;75.08;101726.88;1770159;79;21737;-53
2022/01/08 03:03:14;;;;;;;24.02;13.15;;;;;;;-2.58;75.21;101727.70;1770167;80;21176;-54
2022/01/08 03:06:19;;;;;;;22.40;12.45;;;;;;;-2.56;75.33;101725.84;1770053;79;21213;-53
2022/01/08 03:09:27;;;;;;;25.50;13.03;;;;;;;-2.58;75.10;101723.69;1763474;80;21845;-54
2022/01/08 03:12:38;;;;;;;22.17;12.73;;;;;;;-2.64;75.01;101734.66;1770392;81;21158;-54
2022/01/08 03:15:44;;;;;;;24.12;13.38;;;;;;;-2.67;75.04;101737.45;1770755;79;21213;-55
2022/01/08 03:18:50;;;;;;;17.82;11.65;;;;;;;-2.75;74.69;101747.59;1771226;81;21153;-54
2022/01/08 03:21:57;;;;;;;22.80;13.75;;;;;;;-2.84;74.44;101755.11;1770918;79;21295;-54
2022/01/08 03:25:01;;;;;;;24.85;14.18;;;;;;;-2.92;74.41;101746.03;1770973;81;21173;-54
2022/01/08 03:28:07;;;;;;;20.72;12.78;;;;;;;-2.96;74.53;101749.73;1771611;80;21846;-55
2022/01/08 03:31:12;;;;;;;22.58;13.62;;;;;;;-2.97;74.88;101757.83;1770976;79;21240;-54
2022/01/08 03:34:19;;;;;;;23.42;14.13;;;;;;;-2.97;74.95;101752.48;1770886;81;21185;-53
2022/01/08 03:37:27;;;;;;;26.77;15.20;;;;;;;-2.99;75.01;101753.88;1771156;79;21237;-53
2022/01/08 03:40:32;;;;;;;26.77;14.30;;;;;;;-2.98;75.12;101754.76;1770793;79;21420;-53
2022/01/08 03:43:39;;;;;;;26.15;14.75;;;;;;;-2.98;75.32;101746.23;1770853;80;21262;-54
2022/01/08 03:46:47;;;;;;;26.65;14.55;;;;;;;-2.96;75.40;101756.89;1770924;79;21291;-53
2022/01/08 03:49:53;;;;;;;30.45;15.63;;;;;;;-2.97;75.48;101756.04;1771391;80;21402;-53
2022/01/08 03:53:02;;;;;;;25.40;15.23;;;;;;;-3.00;75.53;101755.27;1770815;80;21145;-53
2022/01/08 03:56:07;;;;;;;27.50;15.93;;;;;;;-3.02;75.70;101753.99;1771191;79;21241;-54
2022/01/08 03:59:13;;;;;;;27.85;16.17;;;;;;;-3.01;75.87;101758.41;1771068;81;21195;-53
2022/01/08 04:02:18;;;;;;;31.15;17.10;;;;;;;-2.99;75.90;101765.93;1770458;79;21248;-53
2022/01/08 04:05:26;;;;;;;26.42;15.08;;;;;;;-3.00;75.66;101772.23;1770201;79;21197;-54
2022/01/08 04:08:31;;;;;;;26.65;16.48;;;;;;;-3.09;75.16;101775.22;1770376;81;21189;-53
2022/01/08 04:11:36;;;;;;;30.12;15.78;;;;;;;-3.18;74.98;101769.75;1770496;79;21216;-53
2022/01/08 04:14:52;;;;;;;28.52;17.37;;;;;;;-3.24;75.04;101767.76;1770454;80;21221;-53
2022/01/08 04:17:51;;;;;;;29.92;16.60;;;;;;;-3.21;75.34;101775.23;1770521;81;21169;-54
2022/01/08 04:24:04;;;;;;;28.57;16.07;;;;;;;-3.19;75.15;101781.86;1770882;80;21204;-53
2022/01/08 04:27:11;;;;;;;27.27;16.07;;;;;;;-3.23;74.87;101780.20;1770995;79;21221;-54
2022/01/08 04:30:17;;;;;;;30.70;17.42;;;;;;;-3.29;74.87;101778.64;1763995;79;21332;-53
2022/01/08 04:33:23;;;;;;;35.40;19.25;;;;;;;-3.28;75.05;101780.38;1770861;81;21177;-54
2022/01/08 04:36:31;;;;;;;30.72;17.55;;;;;;;-3.25;75.02;101779.41;1770862;79;21213;-54
2022/01/08 04:39:36;;;;;;;31.42;17.45;;;;;;;-3.30;74.74;101778.70;1770074;79;21201;-54
2022/01/08 04:42:44;;;;;;;33.05;18.48;;;;;;;-3.33;74.73;101784.16;1770988;80;21183;-53
2022/01/08 04:45:51;;;;;;;42.20;22.70;;;;;;;-3.33;74.92;101793.53;1771203;79;21370;-53
2022/01/08 04:48:56;;;;;;;43.98;23.05;;;;;;;-3.33;74.68;101793.53;1771207;80;21707;-53
2022/01/08 04:52:01;;;;;;;62.90;30.70;;;;;;;-3.36;74.64;101794.50;1770602;79;21297;-53
2022/01/08 04:55:06;;;;;;;69.80;31.80;;;;;;;-3.36;74.64;101792.27;1770791;80;21201;-53
2022/01/08 04:58:12;;;;;;;69.65;31.65;;;;;;;-3.37;74.61;101787.86;1770946;80;21205;-53
2022/01/08 05:01:21;;;;;;;67.00;30.30;;;;;;;-3.41;74.48;101783.07;1771136;79;21828;-53
2022/01/08 05:04:30;;;;;;;69.05;31.10;;;;;;;-3.46;74.38;101780.16;1771099;80;21256;-53
2022/01/08 05:07:36;;;;;;;73.28;34.65;;;;;;;-3.51;74.26;101786.13;1772438;79;21373;-53
2022/01/08 05:10:41;;;;;;;58.83;28.62;;;;;;;-3.57;74.14;101780.52;1739072;82;21230;-52
2022/01/08 05:13:50;;;;;;;58.85;28.57;;;;;;;-3.58;74.30;101790.81;1737988;82;21400;-56
2022/01/08 05:17:01;;;;;;;53.73;27.70;;;;;;;-3.55;74.62;101791.20;1737753;82;21685;-53
2022/01/08 05:20:04;;;;;;;69.00;38.15;;;;;;;-3.58;74.48;101803.31;1739004;82;21318;-53
2022/01/08 05:23:10;;;;;;;68.28;33.90;;;;;;;-3.56;74.74;101812.17;1747001;80;21296;-53
2022/01/08 05:26:21;;;;;;;64.53;35.48;;;;;;;-3.56;74.58;101813.51;1769252;80;21423;-54
2022/01/08 05:29:28;;;;;;;59.45;32.65;;;;;;;-3.58;74.37;101814.02;1769506;80;21177;-54
2022/01/08 05:32:33;;;;;;;62.50;34.38;;;;;;;-3.61;74.32;101819.02;1769242;80;21696;-53
2022/01/08 05:35:38;;;;;;;58.20;32.17;;;;;;;-3.63;74.19;101818.67;1768938;80;21182;-53
2022/01/08 05:38:46;;;;;;;60.48;33.15;;;;;;;-3.67;74.19;101825.92;1769695;80;21210;-54
2022/01/08 05:41:53;;;;;;;58.20;31.15;;;;;;;-3.67;74.15;101823.70;1767890;80;21245;-54
2022/01/08 05:45:01;;;;;;;65.00;33.53;;;;;;;-3.75;73.88;101832.44;1770302;80;21193;-53
2022/01/08 05:48:09;;;;;;;61.37;32.60;;;;;;;-3.73;74.21;101835.95;1771296;80;21189;-53
2022/01/08 05:51:14;;;;;;;55.35;31.42;;;;;;;-3.69;74.10;101840.25;1744941;81;21323;-53
2022/01/08 05:54:24;;;;;;;69.03;33.60;;;;;;;-3.72;74.05;101833.22;1770609;81;21224;-54
2022/01/08 05:57:29;;;;;;;70.08;36.00;;;;;;;-3.68;74.04;101836.67;1771099;79;21359;-55
2022/01/08 06:00:38;;;;;;;67.25;33.75;;;;;;;-3.71;73.80;101834.11;1770833;79;21216;-54
2022/01/08 06:03:45;;;;;;;61.92;31.87;;;;;;;-3.73;73.75;101839.96;1770614;80;21213;-53
2022/01/08 06:06:52;;;;;;;61.00;31.85;;;;;;;-3.74;73.86;101842.23;1770558;79;21221;-52
2022/01/08 06:09:58;;;;;;;64.40;32.53;;;;;;;-3.70;74.05;101852.78;1763953;80;21826;-52
2022/01/08 06:13:04;;;;;;;63.70;32.17;;;;;;;-3.69;73.97;101855.86;1769643;81;21185;-55
2022/01/08 06:16:10;;;;;;;61.63;31.62;;;;;;;-3.64;74.06;101851.23;1769692;80;21730;-54
2022/01/08 06:19:20;;;;;;;64.07;33.38;;;;;;;-3.61;73.96;101856.94;1763195;80;21221;-54
2022/01/08 06:22:25;;;;;;;57.48;30.80;;;;;;;-3.60;73.96;101855.55;1770080;80;21240;-53
2022/01/08 06:25:31;;;;;;;61.13;32.23;;;;;;;-3.60;73.78;101856.87;1770459;80;21228;-53
2022/01/08 06:28:37;;;;;;;57.55;31.77;;;;;;;-3.57;73.83;101857.27;1770217;80;21173;-54
2022/01/08 06:31:45;;;;;;;73.60;36.25;;;;;;;-3.54;73.87;101856.70;1770839;80;21208;-54
2022/01/08 06:34:52;;;;;;;69.27;35.40;;;;;;;-3.51;74.01;101857.05;1770618;81;21779;-54
2022/01/08 06:38:00;;;;;;;77.70;39.23;;;;;;;-3.39;74.31;101856.63;1770667;80;21193;-55
2022/01/08 06:41:06;;;;;;;83.12;41.98;;;;;;;-3.28;74.36;101863.83;1770681;80;21217;-54
2022/01/08 06:44:12;;;;;;;96.65;45.05;;;;;;;-3.24;74.08;101863.69;1770187;80;21414;-53
2022/01/08 06:47:18;;;;;;;99.40;47.78;;;;;;;-3.21;74.07;101865.38;1771421;80;21268;-52
2022/01/08 06:50:23;;;;;;;101.60;48.90;;;;;;;-3.11;74.32;101868.16;1764864;80;21355;-54
2022/01/08 06:53:31;;;;;;;79.70;40.03;;;;;;;-3.02;74.22;101870.50;1771128;80;21220;-53
2022/01/08 06:56:36;;;;;;;92.05;43.95;;;;;;;-2.94;74.22;101870.22;1771229;80;21259;-54
2022/01/08 06:59:42;;;;;;;70.12;35.20;;;;;;;-2.83;74.31;101876.06;1771223;81;21205;-53
2022/01/08 07:02:48;;;;;;;52.58;27.15;;;;;;;-2.73;74.35;101885.08;1770338;81;21265;-53
2022/01/08 07:05:53;;;;;;;43.40;24.00;;;;;;;-2.61;74.42;101885.95;1770506;79;21237;-53
2022/01/08 07:08:59;;;;;;;41.55;22.40;;;;;;;-2.49;74.54;101887.32;1770811;81;21228;-53
2022/01/08 07:12:04;;;;;;;37.65;20.77;;;;;;;-2.36;74.66;101887.28;1770728;79;21256;-53
2022/01/08 07:15:10;;;;;;;31.35;17.32;;;;;;;-2.25;74.63;101884.57;1770875;79;21205;-54
2022/01/08 07:18:16;;;;;;;24.18;15.43;;;;;;;-2.14;74.52;101889.06;1770548;81;21248;-55
2022/01/08 07:21:22;;;;;;;33.20;17.48;;;;;;;-2.03;74.61;101886.83;1770511;79;21781;-55
2022/01/08 07:24:34;;;;;;;33.42;18.73;;;;;;;-1.89;74.54;101889.84;1770507;81;21181;-53
2022/01/08 07:27:39;;;;;;;35.68;16.65;;;;;;;-1.75;74.55;101892.88;1770384;81;21707;-53
2022/01/08 07:30:46;;;;;;;31.93;19.05;;;;;;;-1.64;74.47;101893.32;1770851;79;21245;-53
2022/01/08 07:33:52;;;;;;;36.30;20.02;;;;;;;-1.49;74.45;101897.66;1771467;80;21197;-54
2022/01/08 07:36:58;;;;;;;31.57;18.48;;;;;;;-1.39;74.44;101889.60;1770895;79;21655;-55
2022/01/08 07:40:04;;;;;;;32.08;18.07;;;;;;;-1.29;74.22;101890.52;1771322;80;21173;-54
2022/01/08 07:43:11;;;;;;;28.77;15.80;;;;;;;-1.18;74.06;101880.20;1771043;79;21161;-54
2022/01/08 07:46:17;;;;;;;26.82;15.75;;;;;;;-1.07;73.90;101885.09;1772224;79;21414;-53
2022/01/08 07:49:22;;;;;;;28.40;15.88;;;;;;;-0.98;73.82;101879.35;1770671;80;21339;-54
2022/01/08 07:52:29;;;;;;;22.60;12.55;;;;;;;-0.87;73.71;101887.81;1771798;79;21441;-54
2022/01/08 07:55:36;;;;;;;23.38;12.10;;;;;;;-0.78;73.45;101887.41;1771800;79;21866;-53
2022/01/08 07:58:43;;;;;;;23.65;12.35;;;;;;;-0.68;73.25;101886.06;1771803;80;21339;-53
2022/01/08 08:01:54;;;;;;;22.58;12.00;;;;;;;-0.59;73.05;101884.30;1771984;79;21411;-53
2022/01/08 08:05:01;;;;;;;17.75;10.70;;;;;;;-0.51;72.89;101891.56;1772096;80;22193;-53
2022/01/08 08:08:08;;;;;;;19.07;10.93;;;;;;;-0.42;72.79;101889.78;1772397;80;21382;-54
2022/01/08 08:11:15;;;;;;;17.32;9.60;;;;;;;-0.34;72.66;101888.51;1772151;79;21505;-53
2022/01/08 08:14:22;;;;;;;16.97;8.63;;;;;;;-0.26;72.59;101886.80;1771411;80;21316;-53
2022/01/08 08:17:28;;;;;;;13.72;6.90;;;;;;;-0.18;72.60;101888.66;1751436;80;21383;-54
2022/01/08 08:20:35;;;;;;;13.25;8.13;;;;;;;-0.12;72.40;101881.64;1769501;80;21690;-53
2022/01/08 08:23:42;;;;;;;14.78;7.87;;;;;;;-0.07;72.33;101879.16;1769774;80;21390;-53
2022/01/08 08:26:47;;;;;;;15.38;7.53;;;;;;;0.02;72.21;101856.30;1770296;80;21924;-53
2022/01/08 08:29:54;;;;;;;12.33;7.20;;;;;;;0.12;71.89;101852.69;1749256;80;21201;-54
2022/01/08 08:33:03;;;;;;;11.22;6.72;;;;;;;0.20;71.54;101856.77;1740505;81;21197;-53
2022/01/08 08:36:11;;;;;;;13.58;7.00;;;;;;;0.30;71.33;101849.11;1762740;80;21784;-53
2022/01/08 08:39:19;;;;;;;13.78;6.80;;;;;;;0.40;71.08;101845.88;1772184;80;21926;-54
2022/01/08 08:42:27;;;;;;;12.60;6.85;;;;;;;0.44;70.63;101840.75;1772488;79;21378;-53
2022/01/08 08:45:32;;;;;;;8.93;5.60;;;;;;;0.47;70.27;101846.45;1771015;79;21331;-53
2022/01/08 08:48:43;;;;;;;10.15;5.25;;;;;;;0.48;70.03;101838.30;1770147;80;21821;-55
2022/01/08 08:51:48;;;;;;;11.43;5.53;;;;;;;0.54;70.01;101837.13;1770210;79;21810;-56
2022/01/08 08:54:55;;;;;;;14.38;5.72;;;;;;;0.63;69.44;101838.88;1770659;80;21205;-53
2022/01/08 08:58:00;;;;;;;12.55;5.42;;;;;;;0.73;68.79;101833.41;1770074;80;21260;-53
2022/01/08 09:01:07;;;;;;;23.95;7.67;;;;;;;0.77;68.03;101830.97;1770597;80;21205;-54
2022/01/08 09:04:12;;;;;;;20.08;7.05;;;;;;;0.83;66.64;101823.91;1770217;80;21359;-54
2022/01/08 09:07:18;;;;;;;14.70;7.17;;;;;;;0.85;66.38;101826.05;1770477;79;21729;-54
2022/01/08 09:10:27;;;;;;;20.30;7.85;;;;;;;0.87;65.63;101821.94;1750140;79;21233;-55
2022/01/08 09:13:32;;;;;;;24.05;8.00;;;;;;;0.85;64.82;101817.97;1716751;82;21305;-54
2022/01/08 09:16:38;;;;;;;17.87;7.22;;;;;;;0.85;64.92;101813.92;1768804;79;21228;-55
2022/01/08 09:19:44;;;;;;;21.93;9.00;;;;;;;0.89;65.14;101814.15;1769603;80;21263;-55
2022/01/08 09:22:49;;;;;;;18.65;8.53;;;;;;;0.98;64.67;101806.92;1752416;81;21197;-55
2022/01/08 09:25:54;;;;;;;11.10;6.42;;;;;;;0.99;64.47;101811.38;1770279;79;21269;-54
2022/01/08 09:29:00;;;;;;;14.93;5.70;;;;;;;1.02;64.30;101811.22;1770162;80;21184;-53
2022/01/08 09:32:05;;;;;;;10.08;4.55;;;;;;;1.01;63.70;101804.09;1769739;79;21213;-53
2022/01/08 09:35:13;;;;;;;11.12;5.70;;;;;;;0.95;63.31;101801.69;1770332;79;21185;-53
2022/01/08 09:38:18;;;;;;;13.80;5.95;;;;;;;0.93;63.34;101798.70;1761380;80;21734;-52
2022/01/08 09:41:23;;;;;;;8.60;4.83;;;;;;;0.97;63.63;101790.36;1771117;79;21875;-52
2022/01/08 09:44:30;;;;;;;8.63;4.85;;;;;;;0.96;62.99;101781.00;1771467;80;21406;-54
2022/01/08 09:47:38;;;;;;;6.45;3.95;;;;;;;0.96;62.90;101783.70;1768589;79;21280;-54
2022/01/08 09:50:44;;;;;;;11.40;5.62;;;;;;;0.98;62.23;101775.91;1768174;80;21399;-52
2022/01/08 09:53:52;;;;;;;9.75;4.67;;;;;;;1.05;62.32;101773.30;1761233;80;21722;-53
2022/01/08 09:56:59;;;;;;;10.03;4.50;;;;;;;1.10;61.88;101772.59;1769608;81;21774;-53
2022/01/08 10:00:07;;;;;;;11.18;5.05;;;;;;;1.08;61.65;101758.77;1770059;81;21212;-51
2022/01/08 10:03:33;;;;;;;9.25;5.50;;;;;;;1.07;61.62;101766.02;1770075;81;21240;-53
2022/01/08 10:06:37;;;;;;;9.08;5.22;;;;;;;1.13;61.69;101760.28;1739490;80;21223;-53
2022/01/08 10:09:43;;;;;;;13.30;6.10;;;;;;;1.26;61.16;101761.84;1737881;82;21207;-53
2022/01/08 10:13:00;;;;;;;11.53;5.67;;;;;;;1.29;60.39;101757.16;1738295;82;21324;-53
2022/01/08 10:19:31;;;;;;;13.28;5.90;;;;;;;1.18;59.86;101758.22;1744075;81;21697;-53
2022/01/08 10:22:38;;;;;;;10.05;5.50;;;;;;;1.21;60.06;101752.66;1767028;80;22006;-52
2022/01/08 10:25:43;;;;;;;9.43;5.33;;;;;;;1.26;59.33;101747.88;1767653;80;21216;-52
2022/01/08 10:28:52;;;;;;;8.20;5.10;;;;;;;1.29;59.09;101736.92;1767841;80;21193;-52
2022/01/08 10:32:00;;;;;;;6.53;4.10;;;;;;;1.41;59.07;101729.99;1768354;81;21216;-52
2022/01/08 10:35:07;;;;;;;5.95;3.33;;;;;;;1.51;59.01;101725.80;1768570;80;21232;-52
2022/01/08 10:38:12;;;;;;;9.85;4.62;;;;;;;1.58;58.27;101731.73;1757861;81;21272;-52
2022/01/08 10:41:21;;;;;;;7.78;4.03;;;;;;;1.57;58.01;101728.66;1757558;79;21181;-52
2022/01/08 10:44:31;;;;;;;7.75;3.77;;;;;;;1.63;57.90;101726.48;1755933;81;21180;-52
2022/01/08 10:47:37;;;;;;;6.12;3.20;;;;;;;1.63;57.33;101735.93;1757395;78;21781;-52
2022/01/08 10:50:43;;;;;;;6.33;3.65;;;;;;;1.61;56.42;101723.45;1752383;79;21714;-52
2022/01/08 10:54:17;;;;;;;7.30;4.10;;;;;;;1.63;56.72;101713.46;1769393;80;21166;-54
2022/01/08 10:57:22;;;;;;;10.38;5.30;;;;;;;1.72;56.88;101711.11;1768631;79;21212;-52
2022/01/08 11:00:31;;;;;;;10.72;5.17;;;;;;;1.75;56.50;101704.18;1770169;79;21197;-52
2022/01/08 11:03:48;;;;;;;9.80;5.60;;;;;;;1.72;56.15;101702.13;1744349;81;21189;-53
2022/01/08 11:07:02;;;;;;;13.72;6.67;;;;;;;1.80;56.67;101705.27;1769785;79;21274;-53
2022/01/08 11:10:23;;;;;;;12.03;5.62;;;;;;;1.89;56.58;101700.70;1769889;80;21197;-52
2022/01/08 11:13:28;;;;;;;15.85;6.30;;;;;;;2.02;56.53;101699.89;1756100;81;21183;-52
2022/01/08 11:16:35;;;;;;;13.05;5.50;;;;;;;2.10;56.63;101704.36;1767412;79;21322;-52
2022/01/08 11:19:41;;;;;;;11.25;5.60;;;;;;;2.21;56.25;101692.91;1769531;80;21860;-53
2022/01/08 11:22:51;;;;;;;12.63;5.33;;;;;;;2.26;55.92;101694.87;1769902;80;21979;-53
2022/01/08 11:25:56;;;;;;;7.25;3.95;;;;;;;2.24;55.89;101684.16;1769874;79;21256;-52
2022/01/08 11:29:07;;;;;;;7.10;3.58;;;;;;;2.15;55.09;101694.63;1769647;80;21371;-52
2022/01/08 11:32:13;;;;;;;8.63;4.05;;;;;;;2.05;54.79;101700.17;1769755;81;21264;-52
2022/01/08 11:35:21;;;;;;;12.43;4.97;;;;;;;1.95;54.20;101692.24;1759953;81;21375;-52
2022/01/08 11:38:28;;;;;;;6.80;3.58;;;;;;;1.92;54.33;101692.42;1764243;81;21292;-52
2022/01/08 11:41:36;;;;;;;9.08;4.25;;;;;;;1.90;54.63;101694.34;1729645;83;21188;-52
2022/01/08 11:44:44;;;;;;;14.38;4.62;;;;;;;1.86;55.29;101691.41;1729761;83;21733;-53
2022/01/08 11:47:53;;;;;;;6.87;3.80;;;;;;;1.91;55.59;101687.97;1730619;79;21742;-53
2022/01/08 11:51:04;;;;;;;6.95;3.72;;;;;;;1.98;55.66;101686.66;1730651;82;21220;-53
2022/01/08 11:54:08;;;;;;;7.22;3.35;;;;;;;1.99;55.87;101692.44;1730268;83;21871;-53
2022/01/08 11:57:30;;;;;;;5.78;3.15;;;;;;;2.03;55.83;101680.52;1729625;83;21314;-52
2022/01/08 12:00:56;;;;;;;12.60;3.70;;;;;;;2.02;55.24;101681.45;1729532;83;21389;-52
2022/01/08 12:04:01;;;;;;;9.40;3.45;;;;;;;2.03;55.29;101681.87;1729177;83;21705;-52
2022/01/08 12:07:37;;;;;;;6.65;3.25;;;;;;;1.97;54.74;101683.08;1729670;83;21232;-51
2022/01/08 12:10:43;;;;;;;15.28;5.50;;;;;;;1.92;54.62;101695.13;1730113;83;21212;-52
2022/01/08 12:13:55;;;;;;;11.70;5.70;;;;;;;1.82;54.77;101693.91;1730685;83;21254;-56
2022/01/08 12:17:24;;;;;;;8.98;5.17;;;;;;;1.82;55.00;101685.81;1730607;83;21375;-53
2022/01/08 12:21:00;;;;;;;12.20;6.03;;;;;;;1.75;55.08;101687.11;1731034;82;21193;-52
2022/01/08 12:24:06;;;;;;;22.75;9.58;;;;;;;1.66;55.15;101689.88;1731132;83;21347;-52
2022/01/08 12:27:17;;;;;;;15.83;7.55;;;;;;;1.65;55.62;101698.06;1731160;83;21383;-52
2022/01/08 12:30:33;;;;;;;15.65;6.87;;;;;;;1.67;55.88;101691.60;1716376;83;21189;-51
2022/01/08 12:33:41;;;;;;;10.93;6.72;;;;;;;1.68;56.10;101689.78;1730717;83;21269;-53
2022/01/08 12:37:04;;;;;;;23.05;10.23;;;;;;;1.72;56.43;101689.52;1759529;81;21366;-52
2022/01/08 12:40:10;;;;;;;14.35;8.45;;;;;;;1.76;56.63;101693.77;1770684;79;21197;-53
2022/01/08 12:43:39;;;;;;;12.03;7.83;;;;;;;1.81;56.73;101686.78;1770960;80;21201;-53
2022/01/08 12:46:49;;;;;;;10.80;5.78;;;;;;;1.83;56.63;101694.28;1770322;79;21212;-54
2022/01/08 12:50:32;;;;;;;12.50;7.53;;;;;;;1.84;56.05;101687.95;1764459;80;21414;-53
2022/01/08 12:53:37;;;;;;;13.90;7.08;;;;;;;1.73;55.84;101680.45;1770755;80;21204;-53
2022/01/08 12:56:54;;;;;;;19.48;7.72;;;;;;;1.65;56.11;101686.77;1769929;79;21212;-53
2022/01/08 13:00:06;;;;;;;17.48;8.40;;;;;;;1.62;56.19;101681.55;1769962;80;21752;-53
2022/01/08 13:03:12;;;;;;;16.32;7.85;;;;;;;1.60;56.39;101676.73;1770812;80;21228;-52
2022/01/08 13:06:25;;;;;;;13.35;7.33;;;;;;;1.65;56.55;101669.72;1769571;79;21216;-52
2022/01/08 13:09:33;;;;;;;15.68;6.95;;;;;;;1.66;56.61;101671.45;1769996;80;21432;-52
2022/01/08 13:12:38;;;;;;;16.75;8.93;;;;;;;1.63;56.75;101678.38;1768917;81;21221;-52
2022/01/08 13:15:45;;;;;;;19.17;10.72;;;;;;;1.59;56.76;101677.67;1768947;79;21773;-53
2022/01/08 13:19:02;;;;;;;18.45;9.10;;;;;;;1.50;56.71;101669.64;1767197;80;21185;-53
2022/01/08 13:22:12;;;;;;;23.50;10.35;;;;;;;1.42;56.88;101661.11;1752956;81;21722;-52
2022/01/08 13:25:17;;;;;;;19.57;10.28;;;;;;;1.34;57.19;101653.93;1769398;79;21194;-53
2022/01/08 13:28:27;;;;;;;20.37;10.25;;;;;;;1.27;57.41;101645.78;1768866;80;21181;-52
2022/01/08 13:31:52;;;;;;;22.85;9.33;;;;;;;1.23;57.76;101648.27;1767887;79;21252;-52
2022/01/08 13:35:04;;;;;;;18.57;9.50;;;;;;;1.16;57.93;101641.47;1762713;81;21700;-52
2022/01/08 13:38:10;;;;;;;19.00;10.35;;;;;;;1.11;58.17;101635.45;1769039;81;21571;-52
2022/01/08 13:41:18;;;;;;;20.72;10.60;;;;;;;1.04;58.31;101644.86;1767717;81;21248;-52
2022/01/08 13:44:24;;;;;;;21.48;9.55;;;;;;;1.00;58.41;101643.27;1767744;80;21730;-51
2022/01/08 13:47:44;;;;;;;20.25;10.45;;;;;;;0.94;58.56;101642.73;1767418;80;21610;-53
2022/01/08 13:50:57;;;;;;;21.07;11.50;;;;;;;0.86;58.94;101643.16;1767873;80;21600;-52
2022/01/08 13:54:15;;;;;;;20.23;10.85;;;;;;;0.84;59.36;101643.70;1770408;80;21367;-52
2022/01/08 13:57:24;;;;;;;25.62;11.35;;;;;;;0.80;60.42;101646.19;1767643;80;21240;-52
2022/01/08 14:00:34;;;;;;;26.20;11.43;;;;;;;0.75;62.45;101648.27;1772144;80;21570;-52
2022/01/08 14:03:49;;;;;;;20.62;10.72;;;;;;;0.77;63.47;101637.39;1744341;80;21220;-53
2022/01/08 14:07:01;;;;;;;20.40;9.55;;;;;;;0.74;63.91;101633.06;1771643;79;21714;-52
2022/01/08 14:10:06;;;;;;;19.23;9.93;;;;;;;0.76;63.74;101634.32;1771807;80;21197;-52
2022/01/08 14:13:19;;;;;;;25.75;11.57;;;;;;;0.74;63.32;101635.75;1771523;80;21710;-52
2022/01/08 14:16:25;;;;;;;23.02;10.10;;;;;;;0.70;63.05;101630.62;1770057;79;21201;-52
2022/01/08 14:19:30;;;;;;;21.25;10.80;;;;;;;0.65;62.90;101636.73;1772381;80;21180;-52
2022/01/08 14:22:37;;;;;;;24.77;10.90;;;;;;;0.56;62.82;101634.50;1772326;80;21248;-53
2022/01/08 14:25:45;;;;;;;25.70;12.05;;;;;;;0.49;63.04;101631.27;1771723;79;21212;-53
2022/01/08 14:29:12;;;;;;;21.15;10.88;;;;;;;0.44;63.31;101634.70;1771459;80;21174;-53
2022/01/08 14:32:19;;;;;;;21.35;10.75;;;;;;;0.40;63.43;101633.11;1771797;79;21260;-52
2022/01/08 14:35:24;;;;;;;18.90;10.03;;;;;;;0.37;63.69;101626.54;1772206;79;21176;-53
2022/01/08 14:38:30;;;;;;;18.02;10.35;;;;;;;0.39;63.83;101630.50;1763840;80;21181;-52
2022/01/08 14:41:45;;;;;;;17.70;10.40;;;;;;;0.39;63.99;101631.84;1769297;80;21586;-53
2022/01/08 14:45:08;;;;;;;19.02;11.12;;;;;;;0.38;64.09;101621.53;1772814;80;21658;-52
2022/01/08 14:48:28;;;;;;;18.50;9.68;;;;;;;0.34;64.07;101629.40;1772569;80;21247;-53